CheckWX is a tool to help pilots better visualize weather data.  It is not intended as a substitute for an official pre-flight weather briefing.

12:18:06 UTC

EGGP METAR
Liverpool John Lennon Airport
Liverpool, United Kingdom
Current

28 mins ago

EGGP 221150Z 14007KT 100V190 CAVOK 12/07 Q1033
Observed
Feb-22 @ 11:50 UTC
Wind
  • 140° at 7 KTS
Visibility
10,000+ meters
Flight Rules
VFR
Cloud Levels
  • Clear skies
Temperature
12°C / 54°F
Dewpoint
C / 45°F
Humidity
72%
Altimeter
30.5" Hg
Pressure
1032.91 hPa
Previous

58 mins ago

EGGP 221120Z 14009KT CAVOK 12/08 Q1033
Observed
Feb-22 @ 11:20 UTC
Wind
  • 140° at 9 KTS
Visibility
10,000+ meters
Flight Rules
VFR
Cloud Levels
  • Clear skies
Temperature
12°C / 54°F
Dewpoint
C / 46°F
Humidity
77%
Altimeter
30.5" Hg
Pressure
1032.91 hPa
Previous

1 hour ago

EGGP 221050Z 13007KT CAVOK 11/07 Q1033
Observed
Feb-22 @ 10:50 UTC
Wind
  • 130° at 7 KTS
Visibility
10,000+ meters
Flight Rules
VFR
Cloud Levels
  • Clear skies
Temperature
11°C / 52°F
Dewpoint
C / 45°F
Humidity
77%
Altimeter
30.5" Hg
Pressure
1032.91 hPa